Tropical Cyclones
[Index]
Main Index Home Page Stock Weather Photos Extreme Storms Discussion Storm News and Storm Chasing Reports Tropical Cyclones / Hurricanes / Typhoons Weather Data and Links Wild Fires / Bushfires Weather Observation Techniques Weather Picture Catalogue Tornado Pictures and Reports Stock Video Footage and DVDs for sale
Season 1968-1969 Tropical Cyclone AUDREY Track Map
Season 1968-1969 Summaries: [BoM-AU] [JTWC-AU] [JTWC-SIO] [JTWC-SPAC] [JTWC-SH]
<<- Previous TC | BoM 1968-1969 Season | Next TC ->>

click for intensity scale information  Lat/long Grid: Show Hide

 Date Labels: Show Hide

Bureau of Meteorology Tropical Cyclone Data

Name: AUDREY
Number: 446 / 196869_12

01 Mar 1969 00:00 UTC to 09 Mar 1969 01:00 UTC

    date/time    lat    long    hPa   cat  kts
1969-03-01 00   12.6   136.0   1002                     
1969-03-01 02   12.4   136.0   1002                     
1969-03-01 03   12.4   136.0   1001                     
1969-03-01 06   12.0   136.1   1000                     
1969-03-01 09   11.8   136.3    998                     
1969-03-01 12   11.9   136.5    998                     
1969-03-01 15   12.0   136.7    997                     
1969-03-01 16   12.2   136.2    997                     
1969-03-01 18   12.2   136.6    996                     
1969-03-01 21   11.9   136.1    996                     
1969-03-02 00   11.5   135.9    995    1                
1969-03-02 03   11.3   135.7    994    1                
1969-03-02 04   11.2   135.6    994    1                
1969-03-02 06   11.3   135.5    993    1                
1969-03-02 09   11.4   135.4    992    1                
1969-03-02 12   11.4   135.3    992    1                
1969-03-02 15   11.5   135.2    992    1                
1969-03-02 18   11.7   135.2    992    1                
1969-03-02 21   11.9   135.1    992    1                
1969-03-03 00   12.0   134.9    992    1                
1969-03-03 03   12.0   134.7    992    1                
1969-03-03 06   12.0   134.4    991    1                
1969-03-03 09   12.1   134.2    991    1                
1969-03-03 12   12.1   133.9    991    1                
1969-03-03 15   12.2   133.4    992    1                
1969-03-03 18   12.3   133.0    992    1                
1969-03-03 21   12.5   132.6    992    1                
1969-03-04 00   12.7   132.1    993    1                
1969-03-04 06   13.1   131.2    994    1                
1969-03-04 09   13.3   130.7    994    1                
1969-03-04 12   13.6   130.3    994    1                
1969-03-04 15   13.8   129.8    993    1                
1969-03-04 18   14.0   129.5    992    1                
1969-03-04 21   14.1   129.2    975    2                
1969-03-04 23   14.7   128.3    976    2                
1969-03-05 01   14.8   128.1    988    1                
1969-03-05 04   15.0   127.9    993    1                
1969-03-05 13   15.3   126.9    995    1                
1969-03-06 01   15.6   125.3    996                     
1969-03-06 04   16.0   124.5                            
1969-03-06 06   16.2   124.2                            
1969-03-06 07   16.3   124.0    993    1                
1969-03-06 16   17.3   123.8    990    1                
1969-03-07 01   18.2   123.2    996                     
1969-03-07 07   18.8   123.0    996                     
1969-03-08 01   20.0   123.1   1002                     
1969-03-08 13   20.7   124.6   1003                     
1969-03-09 01   21.0   126.2   1005                     
Winds are 10-min average.

Tropical cyclone tracks developed by Michael Bath using data from the Bureau of Meteorology and Google Maps.


[Australian Severe Weather index] [Copyright Notice] [Email Contacts] [Search This Site] [Privacy Policy]
Document: tropical_cyclone_audrey.htm Updated: 30 May 2013